Time;durP1;ratioP1;P1;durP2;ratioP2;P2;SDS_P1;SDS_P2;PMS_P1;PMS_P2;Temp;Humidity;BMP_temperature;BMP_pressure;BME280_temperature;BME280_humidity;BME280_pressure;Samples;Min_cycle;Max_cycle;Signal;HPM_P1;HPM_P2
2022/02/18 00:00:56;;;;;;;7.28;1.00;;;;;;;5.00;66.42;99832.31;5004768;28;20084;-73
2022/02/18 00:03:22;;;;;;;6.55;1.27;;;;;;;4.95;65.95;99837.53;5002207;28;20406;-73
2022/02/18 00:05:47;;;;;;;10.38;1.90;;;;;;;4.95;66.38;99849.72;5003676;28;20047;-72
2022/02/18 00:08:13;;;;;;;6.70;1.40;;;;;;;5.04;65.52;99848.03;5003326;28;20049;-73
2022/02/18 00:10:42;;;;;;;5.70;1.02;;;;;;;5.03;65.55;99868.94;5004612;28;20038;-73
2022/02/18 00:13:08;;;;;;;11.45;1.85;;;;;;;5.09;65.45;99874.22;4998428;28;20040;-73
2022/02/18 00:15:34;;;;;;;6.90;1.33;;;;;;;5.06;65.01;99861.13;5003788;28;20034;-73
2022/02/18 00:18:02;;;;;;;7.68;1.40;;;;;;;5.08;65.19;99875.06;5003654;28;20117;-73
2022/02/18 00:20:29;;;;;;;5.60;1.13;;;;;;;4.96;65.09;99869.78;5001793;28;20044;-73
2022/02/18 00:22:55;;;;;;;9.27;1.75;;;;;;;4.93;65.12;99862.78;5004444;28;20038;-73
2022/02/18 00:25:22;;;;;;;8.80;1.27;;;;;;;4.99;64.67;99885.50;5000315;28;20036;-73
2022/02/18 00:27:48;;;;;;;6.55;1.05;;;;;;;4.99;64.79;99877.63;5003897;28;20061;-73
2022/02/18 00:30:14;;;;;;;6.43;1.30;;;;;;;4.97;64.66;99889.81;5001680;28;20081;-73
2022/02/18 00:32:39;;;;;;;10.15;1.33;;;;;;;4.90;64.93;99886.31;5004516;28;20034;-73
2022/02/18 00:35:05;;;;;;;6.28;1.40;;;;;;;4.91;64.80;99887.19;5002166;28;20038;-73
2022/02/18 00:37:31;;;;;;;6.50;1.25;;;;;;;4.89;64.50;99878.44;4985314;28;20037;-73
2022/02/18 00:40:00;;;;;;;8.77;1.38;;;;;;;4.78;64.84;99878.38;5002630;28;20108;-73
2022/02/18 00:42:25;;;;;;;6.85;1.20;;;;;;;4.83;64.46;99885.38;5000634;28;20121;-73
2022/02/18 00:44:51;;;;;;;7.70;1.50;;;;;;;4.78;64.22;99892.31;4998053;28;20066;-73
2022/02/18 00:47:17;;;;;;;9.52;1.30;;;;;;;4.81;64.03;99887.09;4998098;28;20038;-73
2022/02/18 00:49:43;;;;;;;4.57;1.15;;;;;;;4.88;64.41;99892.41;4998464;28;20069;-73
2022/02/18 00:52:08;;;;;;;6.53;1.08;;;;;;;4.75;64.68;99880.97;4969711;28;20034;-72
2022/02/18 00:54:34;;;;;;;6.18;1.23;;;;;;;4.70;64.53;99887.91;4985624;28;20037;-73
2022/02/18 00:56:59;;;;;;;4.90;0.90;;;;;;;4.77;64.42;99879.25;4970255;28;20056;-73
2022/02/18 00:59:25;;;;;;;6.13;1.13;;;;;;;4.76;63.95;99882.72;5001722;28;20038;-73
2022/02/18 01:01:50;;;;;;;7.28;1.30;;;;;;;4.75;64.11;99910.59;5004040;28;20038;-73
2022/02/18 01:04:16;;;;;;;7.38;1.25;;;;;;;4.79;63.64;99886.25;5000895;28;20038;-73
2022/02/18 01:06:42;;;;;;;9.63;1.35;;;;;;;4.78;63.19;99899.28;5003446;28;20060;-73
2022/02/18 01:09:08;;;;;;;4.25;1.05;;;;;;;4.78;63.32;99904.53;4984459;28;20121;-73
2022/02/18 01:11:33;;;;;;;8.65;1.17;;;;;;;4.76;63.44;99906.25;5003811;28;20034;-73
2022/02/18 01:14:00;;;;;;;10.80;1.40;;;;;;;4.75;63.42;99912.34;4979767;28;20142;-73
2022/02/18 01:16:27;;;;;;;8.13;1.20;;;;;;;4.70;63.71;99899.25;5002732;28;20073;-72
2022/02/18 01:18:53;;;;;;;7.60;1.15;;;;;;;4.62;64.09;99906.16;4985127;28;20030;-72
2022/02/18 01:21:19;;;;;;;8.68;1.25;;;;;;;4.60;64.26;99913.09;5000832;28;20049;-72
2022/02/18 01:23:44;;;;;;;5.00;1.30;;;;;;;4.52;64.27;99920.00;5003700;28;20046;-72
2022/02/18 01:26:10;;;;;;;4.13;0.98;;;;;;;4.52;64.57;99925.22;5001086;28;20034;-72
2022/02/18 01:28:38;;;;;;;6.93;1.48;;;;;;;4.49;64.96;99917.38;4984080;28;20082;-72
2022/02/18 01:31:03;;;;;;;5.57;1.27;;;;;;;4.46;64.79;99922.56;4963987;28;20239;-72
2022/02/18 01:33:29;;;;;;;9.95;1.40;;;;;;;4.43;64.89;99917.28;4967644;28;20035;-73
2022/02/18 01:35:54;;;;;;;7.22;1.27;;;;;;;4.48;64.11;99919.09;4983613;28;20049;-72
2022/02/18 01:38:19;;;;;;;7.22;0.90;;;;;;;4.46;64.31;99931.28;5001894;28;20044;-73
2022/02/18 01:40:45;;;;;;;10.27;1.50;;;;;;;4.45;64.78;99926.91;4985226;28;20042;-72
2022/02/18 01:43:11;;;;;;;5.70;1.02;;;;;;;4.41;64.77;99919.03;4999108;28;20038;-72
2022/02/18 01:45:37;;;;;;;9.55;1.17;;;;;;;4.42;64.49;99928.63;5002852;28;20108;-73
2022/02/18 01:48:03;;;;;;;6.25;1.08;;;;;;;4.43;64.35;99927.75;4997559;28;20178;-72
2022/02/18 01:50:28;;;;;;;6.03;0.85;;;;;;;4.45;64.36;99928.63;5001317;28;20042;-72
2022/02/18 01:52:55;;;;;;;6.72;1.02;;;;;;;4.49;64.70;99935.66;4980177;28;20419;-72
2022/02/18 01:55:22;;;;;;;7.45;1.08;;;;;;;4.64;63.96;99935.78;4999013;28;20038;-72
2022/02/18 01:57:51;;;;;;;5.07;0.90;;;;;;;4.75;63.44;99920.19;4984539;28;20038;-72
2022/02/18 02:00:25;;;;;;;5.22;0.90;;;;;;;4.83;63.10;99924.59;5002534;28;20494;-72
2022/02/18 02:02:51;;;;;;;8.32;1.08;;;;;;;4.88;62.01;99922.03;4963863;28;20031;-72
2022/02/18 02:05:17;;;;;;;4.85;0.90;;;;;;;4.98;62.00;99922.97;5002105;28;20053;-72
2022/02/18 02:07:43;;;;;;;7.85;1.88;;;;;;;5.04;62.26;99917.78;5002636;28;20498;-72
2022/02/18 02:10:11;;;;;;;8.95;1.10;;;;;;;5.14;61.61;99922.19;4979857;28;20490;-72
2022/02/18 02:12:39;;;;;;;5.53;1.02;;;;;;;5.11;61.70;99923.91;4991776;28;20074;-72
2022/02/18 02:15:10;;;;;;;7.10;0.80;;;;;;;5.14;61.84;99916.97;4983058;28;20038;-72
2022/02/18 02:17:36;;;;;;;9.25;1.48;;;;;;;5.20;61.70;99926.59;4963375;28;20495;-73
2022/02/18 02:20:04;;;;;;;5.80;0.93;;;;;;;5.25;61.39;99944.06;4984886;28;20148;-72
2022/02/18 02:22:30;;;;;;;5.90;0.95;;;;;;;5.27;61.81;99929.25;4969307;28;20462;-73
2022/02/18 02:24:57;;;;;;;6.30;0.90;;;;;;;5.41;60.48;99925.84;4981239;28;20029;-72
2022/02/18 02:27:29;;;;;;;7.32;1.27;;;;;;;5.56;60.36;99922.44;4979515;28;20463;-72
2022/02/18 02:29:54;;;;;;;5.40;0.90;;;;;;;5.60;60.12;99919.81;5001353;28;20026;-72
2022/02/18 02:32:20;;;;;;;5.35;1.10;;;;;;;5.64;60.36;99925.94;5002232;28;20500;-72
2022/02/18 02:34:46;;;;;;;7.00;0.90;;;;;;;5.71;60.13;99930.31;4982025;28;20545;-72
2022/02/18 02:37:12;;;;;;;5.32;1.35;;;;;;;5.80;59.59;99929.50;4984812;28;20026;-72
2022/02/18 02:39:39;;;;;;;5.53;1.00;;;;;;;5.86;59.30;99922.53;4983691;28;20145;-72
2022/02/18 02:42:06;;;;;;;8.00;1.30;;;;;;;6.02;58.69;99935.69;4999981;28;20554;-73
2022/02/18 02:44:34;;;;;;;5.65;1.08;;;;;;;6.19;58.27;99927.91;4982476;28;20035;-72
2022/02/18 02:47:08;;;;;;;4.35;0.77;;;;;;;6.17;58.29;99924.41;5000136;28;20541;-73
2022/02/18 02:49:34;;;;;;;10.80;0.88;;;;;;;6.29;58.52;99929.66;4999962;28;20026;-72
2022/02/18 02:52:00;;;;;;;9.50;1.60;;;;;;;6.39;58.16;99949.75;4978467;28;20029;-72
2022/02/18 02:54:26;;;;;;;6.90;1.15;;;;;;;6.59;58.20;99934.91;5000391;28;20044;-72
2022/02/18 02:57:02;;;;;;;8.02;1.50;;;;;;;6.49;62.59;99951.50;4962795;28;20035;-72
2022/02/18 02:59:34;;;;;;;6.80;1.25;;;;;;;6.22;64.01;99943.63;4984218;28;20034;-72
2022/02/18 03:01:59;;;;;;;6.20;1.40;;;;;;;6.01;64.56;99945.31;4983783;28;20407;-72
2022/02/18 03:04:25;;;;;;;5.63;1.50;;;;;;;5.97;65.36;99948.78;4983958;28;20045;-72
2022/02/18 03:06:53;;;;;;;7.22;1.20;;;;;;;6.01;64.87;99933.97;4970658;28;20034;-72
2022/02/18 03:09:18;;;;;;;10.82;1.70;;;;;;;5.99;65.65;99935.69;4987749;28;20040;-73
2022/02/18 03:11:59;;;;;;;7.43;1.30;;;;;;;6.03;64.83;99942.72;4966889;28;20030;-72
2022/02/18 03:14:43;;;;;;;6.68;1.58;;;;;;;6.14;64.31;99925.25;5003180;28;20050;-72
2022/02/18 03:17:13;;;;;;;7.70;1.40;;;;;;;6.14;64.14;99910.41;4987626;28;20125;-72
2022/02/18 03:19:39;;;;;;;5.88;1.15;;;;;;;6.20;63.28;99945.34;4987151;28;20037;-72
2022/02/18 03:22:06;;;;;;;12.93;1.40;;;;;;;6.28;63.33;99933.13;4985730;28;20026;-72
2022/02/18 03:24:32;;;;;;;6.63;1.00;;;;;;;6.15;63.55;99927.88;4966362;28;20492;-72
2022/02/18 03:26:58;;;;;;;9.43;1.48;;;;;;;6.19;63.59;99933.13;4987291;28;20410;-72
2022/02/18 03:29:27;;;;;;;7.50;1.13;;;;;;;6.18;63.80;99926.13;4987524;28;20045;-72
2022/02/18 03:32:00;;;;;;;5.82;1.20;;;;;;;6.21;63.76;99936.63;4981553;28;20026;-72
2022/02/18 03:34:28;;;;;;;6.53;1.20;;;;;;;6.15;64.22;99937.47;4987367;28;20430;-72
2022/02/18 03:36:53;;;;;;;7.57;0.85;;;;;;;6.18;63.79;99947.97;4985177;28;20034;-72
2022/02/18 03:39:22;;;;;;;6.60;0.93;;;;;;;6.21;63.74;99949.72;4985830;28;20037;-72
2022/02/18 03:41:47;;;;;;;6.35;0.90;;;;;;;6.21;63.90;99949.72;4972418;28;20046;-72
2022/02/18 03:44:13;;;;;;;7.00;1.30;;;;;;;6.21;63.44;99954.94;4986393;28;20034;-72
2022/02/18 03:46:47;;;;;;;10.20;1.08;;;;;;;6.23;63.41;99955.84;4987689;28;20030;-72
2022/02/18 03:49:12;;;;;;;6.13;1.20;;;;;;;6.26;63.23;99948.88;5002789;28;20128;-72
2022/02/18 03:51:37;;;;;;;4.68;1.30;;;;;;;6.25;63.53;99956.72;5004124;28;20041;-72
2022/02/18 03:54:03;;;;;;;5.88;1.52;;;;;;;6.23;64.22;99961.06;4971375;28;20033;-72
2022/02/18 03:56:28;;;;;;;10.50;1.10;;;;;;;6.18;64.11;99962.81;4984979;28;20053;-72
2022/02/18 03:58:55;;;;;;;6.53;0.85;;;;;;;6.22;64.62;99960.22;4978685;28;20032;-72
2022/02/18 04:01:21;;;;;;;3.88;0.68;;;;;;;6.15;64.29;99967.16;5004214;28;20037;-72
2022/02/18 04:03:46;;;;;;;6.35;1.23;;;;;;;6.13;64.26;99965.41;4986313;28;20035;-72
2022/02/18 04:06:14;;;;;;;3.58;1.08;;;;;;;6.14;64.59;99967.19;5002000;28;20054;-72
2022/02/18 04:08:43;;;;;;;5.03;0.98;;;;;;;6.15;64.86;99961.94;4966707;28;20022;-72
2022/02/18 04:11:20;;;;;;;7.63;1.10;;;;;;;6.10;64.59;99963.69;4984692;28;20081;-72
2022/02/18 04:13:45;;;;;;;8.95;1.17;;;;;;;6.03;64.64;99956.69;4968800;28;20026;-72
2022/02/18 04:16:11;;;;;;;11.52;1.40;;;;;;;6.09;64.56;99959.31;4986154;28;20026;-72
2022/02/18 04:18:36;;;;;;;5.60;1.30;;;;;;;6.02;64.74;99962.75;4970789;28;20041;-72
2022/02/18 04:21:02;;;;;;;11.13;2.03;;;;;;;5.98;65.02;99958.41;4987306;28;20038;-73
2022/02/18 04:23:35;;;;;;;7.95;1.95;;;;;;;5.99;65.38;99972.38;4981110;28;20038;-73
2022/02/18 04:26:01;;;;;;;5.90;1.40;;;;;;;5.96;65.37;99973.22;4985779;28;20629;-72
2022/02/18 04:28:26;;;;;;;6.40;1.33;;;;;;;6.00;65.50;99974.09;5003619;28;20099;-72
2022/02/18 04:30:51;;;;;;;5.13;0.90;;;;;;;6.05;65.38;99968.03;4995200;28;20116;-72
2022/02/18 04:33:17;;;;;;;3.97;0.98;;;;;;;6.05;64.51;99970.66;4990636;28;20217;-72
2022/02/18 04:35:43;;;;;;;3.78;1.10;;;;;;;6.06;65.05;99975.00;5003830;28;20116;-72
2022/02/18 04:38:09;;;;;;;6.07;0.90;;;;;;;5.99;65.05;99967.13;5002887;28;20445;-72
2022/02/18 04:40:35;;;;;;;6.43;1.10;;;;;;;5.90;65.20;99973.19;5001146;28;20026;-72
2022/02/18 04:43:00;;;;;;;4.72;1.25;;;;;;;5.84;65.96;99974.03;5000949;28;20038;-72
2022/02/18 04:45:28;;;;;;;6.88;1.30;;;;;;;5.86;65.17;99984.50;5002878;28;20048;-72
2022/02/18 04:47:53;;;;;;;3.42;1.10;;;;;;;5.76;65.62;99980.97;5002652;28;20030;-73
2022/02/18 04:50:19;;;;;;;4.72;1.00;;;;;;;5.83;65.44;99977.50;5000717;28;20041;-73
2022/02/18 04:52:44;;;;;;;5.28;1.15;;;;;;;5.83;65.29;99982.75;5000806;28;20399;-73
2022/02/18 04:55:10;;;;;;;7.88;2.28;;;;;;;5.78;64.74;99994.94;5003763;28;20220;-72
2022/02/18 04:57:35;;;;;;;5.93;1.05;;;;;;;5.70;65.15;99991.41;5002091;28;20034;-73
2022/02/18 05:00:04;;;;;;;4.10;0.80;;;;;;;5.69;65.67;100011.50;5001822;28;20048;-73
2022/02/18 05:02:29;;;;;;;7.07;1.58;;;;;;;5.81;64.94;100015.91;5003867;28;20489;-73
2022/02/18 05:04:54;;;;;;;6.38;1.17;;;;;;;5.80;65.31;100008.06;5001048;28;20033;-72
2022/02/18 05:07:20;;;;;;;4.13;1.10;;;;;;;5.76;66.66;99990.56;5001892;28;20113;-72
2022/02/18 05:09:45;;;;;;;4.50;1.10;;;;;;;5.71;66.99;99987.91;5002031;28;20087;-72
2022/02/18 05:12:11;;;;;;;6.50;0.95;;;;;;;5.66;67.37;99985.31;5003369;28;20486;-72
2022/02/18 05:14:36;;;;;;;7.28;1.08;;;;;;;5.57;66.88;99992.22;5000428;28;20494;-73
2022/02/18 05:17:03;;;;;;;8.38;1.15;;;;;;;5.55;66.77;99986.97;4999520;28;20117;-72
2022/02/18 05:19:28;;;;;;;5.70;1.55;;;;;;;5.60;66.58;99984.38;4973979;28;20042;-72
2022/02/18 05:21:55;;;;;;;5.35;1.05;;;;;;;5.63;66.03;99980.06;4999132;28;20066;-73
2022/02/18 05:24:20;;;;;;;6.78;1.15;;;;;;;5.62;65.88;99983.53;5002991;28;20046;-73
2022/02/18 05:26:45;;;;;;;9.45;1.20;;;;;;;5.61;66.07;99975.69;4999697;28;20034;-72
2022/02/18 05:29:11;;;;;;;7.78;1.83;;;;;;;5.65;65.87;99973.06;5002390;28;20045;-72
2022/02/18 05:31:37;;;;;;;5.00;1.30;;;;;;;5.57;65.64;99974.75;5002298;28;20606;-73
2022/02/18 05:34:05;;;;;;;5.38;1.20;;;;;;;5.60;66.02;99969.53;5000407;28;20454;-71
2022/02/18 05:36:31;;;;;;;7.32;1.58;;;;;;;5.60;66.06;99964.31;4998547;28;20123;-72
2022/02/18 05:38:56;;;;;;;6.13;1.20;;;;;;;5.55;66.20;99966.03;4998735;28;20062;-72
2022/02/18 05:41:21;;;;;;;5.78;1.25;;;;;;;5.51;66.42;99969.50;5001359;28;20034;-73
2022/02/18 05:43:48;;;;;;;7.10;1.35;;;;;;;5.54;66.35;99966.91;5000776;28;20422;-72
2022/02/18 05:46:13;;;;;;;5.00;1.10;;;;;;;5.56;66.25;99973.03;4974238;28;20046;-73
2022/02/18 05:48:38;;;;;;;9.98;1.50;;;;;;;5.59;66.56;99973.03;5000946;28;20037;-73
2022/02/18 05:51:05;;;;;;;6.82;1.20;;;;;;;5.62;66.10;99973.06;4966626;28;20041;-72
2022/02/18 05:53:33;;;;;;;9.65;1.55;;;;;;;5.60;66.41;99974.78;5002149;28;20070;-73
2022/02/18 05:55:58;;;;;;;9.65;1.38;;;;;;;5.62;66.87;99973.06;4994310;28;20545;-73
2022/02/18 05:58:25;;;;;;;8.02;1.30;;;;;;;5.59;66.65;99982.66;5001211;28;20045;-72
2022/02/18 06:00:51;;;;;;;6.72;1.90;;;;;;;5.56;67.10;99980.00;4997144;28;20426;-73
2022/02/18 06:03:16;;;;;;;4.78;0.98;;;;;;;5.53;67.13;99983.50;4999041;28;20046;-73
2022/02/18 06:05:42;;;;;;;6.28;1.42;;;;;;;5.51;67.22;99979.97;4995537;28;20474;-73
2022/02/18 06:08:10;;;;;;;7.20;2.03;;;;;;;5.49;67.16;99976.47;5002497;28;20529;-73
2022/02/18 06:10:36;;;;;;;11.50;3.63;;;;;;;5.44;66.99;99979.06;4967024;28;20046;-73
2022/02/18 06:13:01;;;;;;;7.72;1.40;;;;;;;5.39;67.43;99979.91;5002075;28;20033;-72
2022/02/18 06:15:26;;;;;;;6.85;1.42;;;;;;;5.29;67.92;99984.19;4998356;28;20124;-73
2022/02/18 06:17:53;;;;;;;6.63;1.40;;;;;;;5.25;68.11;99988.53;4998673;28;20069;-72
2022/02/18 06:20:18;;;;;;;7.20;1.42;;;;;;;5.18;68.02;99989.34;4983882;28;20077;-72
2022/02/18 06:22:43;;;;;;;6.90;1.00;;;;;;;5.15;69.19;99991.97;5001693;28;20100;-73
2022/02/18 06:25:10;;;;;;;10.85;1.85;;;;;;;5.19;68.78;99985.03;4999905;28;20030;-73
2022/02/18 06:27:35;;;;;;;10.75;1.23;;;;;;;5.19;68.91;99988.50;4998853;28;20052;-72
2022/02/18 06:30:01;;;;;;;6.88;1.30;;;;;;;5.16;69.00;99993.72;4997706;28;20039;-73
2022/02/18 06:32:27;;;;;;;8.18;2.42;;;;;;;5.16;69.09;99990.22;4999667;28;20628;-73
2022/02/18 06:34:53;;;;;;;8.88;1.55;;;;;;;5.22;69.13;99988.53;4999275;28;20038;-73
2022/02/18 06:37:19;;;;;;;9.25;1.45;;;;;;;5.27;68.76;99984.19;5000522;28;20236;-73
2022/02/18 06:39:44;;;;;;;6.90;1.33;;;;;;;5.31;68.84;99978.97;5006173;28;20406;-73
2022/02/18 06:42:10;;;;;;;9.40;1.80;;;;;;;5.26;69.68;99984.19;5003634;28;20030;-73
2022/02/18 06:44:36;;;;;;;8.05;1.73;;;;;;;5.32;69.38;99978.09;4984352;28;20117;-73
2022/02/18 06:47:01;;;;;;;10.55;1.88;;;;;;;5.39;68.87;99982.53;5006440;28;20517;-73
2022/02/18 06:49:27;;;;;;;8.57;1.77;;;;;;;5.46;69.36;99984.31;5003401;28;20034;-72
2022/02/18 06:51:55;;;;;;;7.63;1.65;;;;;;;5.48;69.16;99980.84;5005583;28;20113;-73
2022/02/18 06:54:28;;;;;;;7.72;1.25;;;;;;;5.54;69.24;99977.38;5005346;28;20048;-73
2022/02/18 06:56:56;;;;;;;7.75;1.70;;;;;;;5.56;68.84;99970.41;4999902;28;20038;-73
2022/02/18 06:59:23;;;;;;;8.77;2.08;;;;;;;5.59;68.99;99970.44;5004566;28;20033;-72
2022/02/18 07:01:53;;;;;;;6.43;1.70;;;;;;;5.67;69.19;99966.09;5003506;28;20030;-73
2022/02/18 07:04:18;;;;;;;9.48;2.20;;;;;;;5.76;68.84;99967.88;4999017;28;20034;-73
2022/02/18 07:06:44;;;;;;;9.70;3.58;;;;;;;5.81;68.93;99960.03;5005155;28;20088;-73
2022/02/18 07:09:12;;;;;;;14.35;4.25;;;;;;;5.84;69.17;99958.31;5003700;28;20145;-73
2022/02/18 07:11:39;;;;;;;8.20;2.22;;;;;;;5.89;69.04;99958.31;5003428;28;20118;-72
2022/02/18 07:14:06;;;;;;;9.10;1.98;;;;;;;5.99;68.92;99949.66;4997764;28;20570;-73
2022/02/18 07:16:32;;;;;;;8.30;1.63;;;;;;;6.13;68.57;99949.69;5000172;28;20066;-72
2022/02/18 07:18:59;;;;;;;9.57;1.80;;;;;;;6.31;68.34;99951.47;4975326;28;20065;-73
2022/02/18 07:21:25;;;;;;;9.18;1.92;;;;;;;6.37;68.27;99951.50;5006139;28;20041;-72
2022/02/18 07:23:50;;;;;;;7.25;1.63;;;;;;;6.47;68.12;99940.19;5002499;28;20056;-73
2022/02/18 07:26:16;;;;;;;10.25;1.70;;;;;;;6.51;67.65;99930.56;5004263;28;20034;-73
2022/02/18 07:28:41;;;;;;;6.00;1.10;;;;;;;6.61;67.43;99937.56;5004447;28;20085;-73
2022/02/18 07:31:06;;;;;;;13.88;2.00;;;;;;;6.61;67.96;99926.19;5002197;28;20088;-73
2022/02/18 07:33:32;;;;;;;8.45;1.60;;;;;;;6.59;67.46;99924.44;5009654;28;20026;-73
2022/02/18 07:35:58;;;;;;;12.00;1.55;;;;;;;6.66;67.71;99921.84;4997489;28;20041;-73
2022/02/18 07:38:23;;;;;;;8.57;1.75;;;;;;;6.76;66.84;99927.06;5004781;28;20605;-73
2022/02/18 07:40:48;;;;;;;9.25;1.90;;;;;;;6.82;66.88;99914.81;5005130;28;20042;-73
2022/02/18 07:43:14;;;;;;;6.30;1.38;;;;;;;6.87;66.67;99902.59;5005395;28;20042;-72
2022/02/18 07:45:39;;;;;;;10.50;1.98;;;;;;;6.95;66.52;99912.19;5001663;28;20053;-73
2022/02/18 07:48:05;;;;;;;10.93;2.17;;;;;;;7.05;66.17;99899.94;5004834;28;20038;-73
2022/02/18 07:50:30;;;;;;;11.77;2.00;;;;;;;7.18;66.45;99900.78;5002879;28;20038;-73
2022/02/18 07:52:55;;;;;;;9.68;2.08;;;;;;;7.34;65.63;99891.97;5003139;28;20026;-73
2022/02/18 07:55:21;;;;;;;7.95;2.13;;;;;;;7.30;65.12;99884.97;5005141;28;20042;-73
2022/02/18 07:57:46;;;;;;;8.90;1.50;;;;;;;7.34;65.08;99893.72;5002526;28;20510;-73
2022/02/18 08:00:13;;;;;;;8.63;1.88;;;;;;;7.35;64.86;99884.97;4999519;28;20068;-73
2022/02/18 08:02:38;;;;;;;9.27;1.67;;;;;;;7.47;64.94;99872.69;5003071;28;20038;-73
2022/02/18 08:05:04;;;;;;;10.70;1.77;;;;;;;7.47;64.95;99870.06;4984782;28;20564;-73
2022/02/18 08:07:30;;;;;;;7.55;1.67;;;;;;;7.64;64.88;99869.09;4998462;28;20026;-73
2022/02/18 08:09:55;;;;;;;8.18;1.58;;;;;;;7.68;64.61;99861.19;4988618;28;20073;-73
2022/02/18 08:12:20;;;;;;;12.48;3.00;;;;;;;7.76;65.96;99858.53;5003201;28;20393;-72
2022/02/18 08:14:48;;;;;;;9.93;2.17;;;;;;;7.94;64.97;99843.53;5004064;28;20029;-72
2022/02/18 08:17:13;;;;;;;14.02;2.78;;;;;;;7.96;64.17;99854.91;5001784;28;20065;-73
2022/02/18 08:19:38;;;;;;;9.65;2.22;;;;;;;8.14;63.79;99854.78;5004318;28;20057;-73
2022/02/18 08:22:04;;;;;;;9.38;1.88;;;;;;;8.28;63.74;99855.56;5003081;28;20041;-73
2022/02/18 08:24:31;;;;;;;9.80;2.10;;;;;;;8.29;62.92;99856.44;4997497;28;20058;-74
2022/02/18 08:26:57;;;;;;;10.32;1.92;;;;;;;8.38;62.93;99850.22;5000804;28;20046;-73
2022/02/18 08:29:23;;;;;;;9.60;2.00;;;;;;;8.47;62.06;99848.44;5000466;28;20042;-73
2022/02/18 08:31:50;;;;;;;13.63;2.80;;;;;;;8.33;61.80;99851.16;4984698;28;20030;-73
2022/02/18 08:34:15;;;;;;;11.20;2.67;;;;;;;8.43;62.61;99849.31;4998534;28;20451;-73
2022/02/18 08:36:41;;;;;;;12.23;2.47;;;;;;;8.52;62.52;99857.16;5001250;28;20069;-73
2022/02/18 08:39:08;;;;;;;15.38;3.70;;;;;;;8.58;62.87;99837.81;5000445;28;20655;-73
2022/02/18 08:41:35;;;;;;;9.13;1.95;;;;;;;8.72;61.46;99829.78;4985197;28;20042;-73
2022/02/18 08:44:01;;;;;;;10.27;2.05;;;;;;;8.83;60.96;99838.47;5003002;28;20057;-72
2022/02/18 08:46:28;;;;;;;9.80;2.20;;;;;;;8.94;61.10;99831.31;4998149;28;20046;-73
2022/02/18 08:48:53;;;;;;;10.90;2.20;;;;;;;8.89;60.86;99832.25;5000726;28;20114;-72
2022/02/18 08:51:19;;;;;;;11.25;2.03;;;;;;;8.85;60.16;99835.78;5002782;28;20473;-73
2022/02/18 08:53:44;;;;;;;14.52;2.05;;;;;;;8.87;60.64;99826.13;4997187;28;20041;-73
2022/02/18 08:56:10;;;;;;;10.70;1.88;;;;;;;8.76;59.42;99811.31;4998546;28;20036;-73
2022/02/18 08:58:35;;;;;;;12.55;3.35;;;;;;;8.75;60.45;99819.22;5001042;28;20406;-73
2022/02/18 09:01:01;;;;;;;9.25;2.13;;;;;;;8.87;59.91;99811.22;5002756;28;20034;-73
2022/02/18 09:03:26;;;;;;;9.52;1.67;;;;;;;9.00;59.65;99798.78;5001176;28;20409;-73
2022/02/18 09:05:51;;;;;;;10.93;2.75;;;;;;;9.13;59.56;99802.16;4999642;28;20050;-73
2022/02/18 09:08:18;;;;;;;9.63;1.92;;;;;;;9.14;59.98;99802.16;4983809;28;20037;-73
2022/02/18 09:10:44;;;;;;;12.18;2.97;;;;;;;9.19;58.96;99789.78;5001168;28;20062;-73
2022/02/18 09:13:10;;;;;;;13.45;2.60;;;;;;;9.19;58.89;99778.38;5002495;28;20040;-73
2022/02/18 09:15:37;;;;;;;8.63;1.80;;;;;;;9.12;58.89;99772.34;5002685;28;20502;-73
2022/02/18 09:18:14;;;;;;;9.27;1.98;;;;;;;9.20;59.70;99770.47;4980023;28;20046;-73
2022/02/18 09:20:44;;;;;;;10.80;2.42;;;;;;;9.16;59.17;99770.53;4979929;28;20133;-72
2022/02/18 09:23:10;;;;;;;6.55;1.80;;;;;;;9.26;58.23;99769.50;5000474;28;20398;-72
2022/02/18 09:25:36;;;;;;;10.50;2.30;;;;;;;9.25;58.99;99780.06;4999221;28;20042;-73
2022/02/18 09:28:01;;;;;;;12.43;2.75;;;;;;;9.24;58.60;99792.34;4994179;28;20117;-73
2022/02/18 09:30:27;;;;;;;11.23;3.20;;;;;;;9.31;58.94;99788.75;5000073;28;20088;-73
2022/02/18 09:32:52;;;;;;;11.68;2.95;;;;;;;9.33;58.39;99778.22;4981437;28;20038;-73
2022/02/18 09:35:18;;;;;;;12.93;2.83;;;;;;;9.37;57.74;99772.00;5001948;28;20124;-72
2022/02/18 09:37:44;;;;;;;8.52;2.03;;;;;;;9.46;58.17;99761.34;5001200;28;20037;-73
2022/02/18 09:40:12;;;;;;;7.97;1.88;;;;;;;9.42;57.97;99755.25;5001825;28;20038;-73
2022/02/18 09:42:41;;;;;;;10.85;2.47;;;;;;;9.55;58.16;99749.81;4999802;28;20170;-73
2022/02/18 09:45:07;;;;;;;11.88;2.38;;;;;;;9.70;57.05;99739.06;4999452;28;20038;-73
2022/02/18 09:47:34;;;;;;;12.07;2.80;;;;;;;9.75;57.06;99739.84;4997463;28;20402;-72
2022/02/18 09:50:01;;;;;;;10.10;2.53;;;;;;;9.68;56.75;99740.84;4994587;28;20133;-73
2022/02/18 09:52:27;;;;;;;13.88;3.50;;;;;;;9.61;57.08;99745.31;4999603;28;20066;-73
2022/02/18 09:54:53;;;;;;;26.30;5.72;;;;;;;9.72;58.89;99749.53;5001816;28;20065;-72
2022/02/18 09:57:19;;;;;;;19.15;5.95;;;;;;;9.82;58.25;99749.41;5001134;28;20455;-72
2022/02/18 09:59:45;;;;;;;26.05;3.80;;;;;;;9.86;57.31;99745.81;5000202;28;20074;-73
2022/02/18 10:02:13;;;;;;;12.60;3.38;;;;;;;9.93;57.78;99741.34;5002858;28;20076;-73
2022/02/18 10:04:38;;;;;;;10.52;2.22;;;;;;;10.04;57.16;99735.88;5000076;28;20042;-73
2022/02/18 10:07:06;;;;;;;8.77;2.55;;;;;;;9.99;55.97;99717.50;5001087;28;20065;-73
2022/02/18 10:09:36;;;;;;;9.50;2.38;;;;;;;9.98;55.83;99702.59;5000031;28;20041;-73
2022/02/18 10:12:02;;;;;;;7.47;2.00;;;;;;;9.92;56.25;99692.13;4996526;28;20427;-73
2022/02/18 10:14:51;;;;;;;25.10;4.82;;;;;;;9.87;57.08;99694.84;5000809;28;20034;-73
2022/02/18 10:17:16;;;;;;;14.93;3.30;;;;;;;9.99;57.08;99688.50;4998630;28;20042;-73
2022/02/18 10:19:53;;;;;;;15.85;3.47;;;;;;;10.07;57.58;99691.00;5000764;28;20411;-73
2022/02/18 10:22:26;;;;;;;25.05;5.18;;;;;;;10.18;57.76;99693.44;4964001;28;20042;-73
2022/02/18 10:24:52;;;;;;;21.70;5.47;;;;;;;10.18;56.90;99685.53;4999529;28;20487;-73
2022/02/18 10:27:23;;;;;;;8.93;2.30;;;;;;;10.16;56.05;99689.97;5002475;28;20509;-73
2022/02/18 10:29:57;;;;;;;10.60;3.10;;;;;;;10.10;55.62;99683.03;4986353;28;20064;-73
2022/02/18 10:32:23;;;;;;;12.75;2.72;;;;;;;10.10;56.63;99654.03;5002700;28;20034;-73
2022/02/18 10:35:00;;;;;;;12.93;3.33;;;;;;;10.10;57.59;99631.16;4996798;28;20129;-73
2022/02/18 10:37:28;;;;;;;6.55;2.10;;;;;;;10.25;57.49;99627.38;4984421;28;20031;-73
2022/02/18 10:40:15;;;;;;;12.60;2.97;;;;;;;10.26;56.83;99623.84;4996673;28;20053;-72
2022/02/18 10:42:43;;;;;;;18.90;7.65;;;;;;;10.19;57.69;99613.44;4997065;28;20042;-73
2022/02/18 10:45:11;;;;;;;10.65;3.42;;;;;;;10.21;57.41;99604.59;4996756;28;20042;-73
2022/02/18 10:47:37;;;;;;;8.18;2.45;;;;;;;10.21;57.89;99593.19;4999880;28;20067;-72
2022/02/18 10:50:23;;;;;;;15.15;3.55;;;;;;;10.20;57.62;99602.00;5024738;23;20057;-75
2022/02/18 10:53:20;;;;;;;9.27;1.98;;;;;;;10.09;56.79;99589.03;5002066;28;20051;-75
2022/02/18 10:55:54;;;;;;;7.40;2.00;;;;;;;10.10;57.48;99596.91;4995596;28;20459;-75
2022/02/18 10:58:24;;;;;;;12.80;2.75;;;;;;;10.08;57.94;99598.69;4999437;28;20402;-75
2022/02/18 11:01:14;;;;;;;9.68;2.47;;;;;;;10.09;57.44;99599.59;4987804;28;20373;-76
2022/02/18 11:03:51;;;;;;;10.82;2.33;;;;;;;10.05;57.55;99592.63;4989773;28;20035;-74
2022/02/18 11:06:24;;;;;;;9.05;2.40;;;;;;;9.96;56.98;99587.53;4980041;28;20081;-75
2022/02/18 11:08:55;;;;;;;11.48;2.20;;;;;;;10.10;57.19;99581.06;4998248;28;20442;-75
2022/02/18 11:11:22;;;;;;;10.88;2.28;;;;;;;10.10;57.66;99581.06;4991028;28;20046;-75
2022/02/18 11:13:49;;;;;;;11.38;2.60;;;;;;;10.28;57.27;99563.19;4997230;28;20070;-75
2022/02/18 11:16:17;;;;;;;9.00;2.88;;;;;;;10.40;56.92;99560.31;4999816;28;20510;-75
2022/02/18 11:18:43;;;;;;;11.38;3.05;;;;;;;10.57;56.66;99548.53;4999808;28;20065;-76
2022/02/18 11:21:11;;;;;;;13.13;2.22;;;;;;;10.74;56.94;99538.44;5002302;28;20044;-76
2022/02/18 11:23:38;;;;;;;11.18;2.63;;;;;;;10.70;56.19;99528.88;4999534;28;20043;-75
2022/02/18 11:26:04;;;;;;;12.25;3.15;;;;;;;10.74;56.08;99515.59;5004142;28;20062;-75
2022/02/18 11:28:30;;;;;;;10.00;2.78;;;;;;;10.77;55.68;99508.47;5001844;28;20116;-75
2022/02/18 11:31:00;;;;;;;10.77;2.53;;;;;;;10.83;55.14;99509.22;5002087;28;20121;-75
2022/02/18 11:33:38;;;;;;;13.15;3.30;;;;;;;10.91;55.99;99498.47;5003007;28;20038;-76
2022/02/18 11:36:13;;;;;;;12.57;2.60;;;;;;;10.91;56.46;99483.50;4999320;28;20164;-76
2022/02/18 11:39:08;;;;;;;9.95;2.40;;;;;;;10.81;56.45;99475.84;5002927;28;20044;-75